This is the latest recevied weather packets stored in our database for station/object IV6ZJU-13. If no packets are shown the sender has not sent any weather packets the latest 1 day(s).
| Time | Temp. | Humidity | Pressure | Rain* | Wind** | Luminosity | Snow |
|---|---|---|---|---|---|---|---|
| 1778094294 | 19.44° C | 72% | 1002.5 hPa | - | - | - | - |
| 1778090693 | 20° C | 73% | 1002.2 hPa | - | - | - | - |
| 1778087095 | 20.56° C | 75% | 1002.2 hPa | - | - | - | - |
| 1778083498 | 21.11° C | 70% | 1002.3 hPa | - | - | - | - |
| 1778082601 | 21.11° C | 68% | 1002.2 hPa | - | - | - | - |
| 1778079001 | 21.67° C | 64% | 1002.4 hPa | - | - | - | - |
| 1778078095 | 21.67° C | 62% | 1002.4 hPa | - | - | - | - |
| 1778077201 | 22.22° C | 60% | 1002.5 hPa | - | - | - | - |
| 1778074494 | 22.22° C | 58% | 1002.8 hPa | - | - | - | - |
| 1778071803 | 21.11° C | 66% | 1003.3 hPa | - | - | - | - |
| 1778070001 | 21.11° C | 67% | 1003.4 hPa | - | - | - | - |
| 1778068204 | 21.11° C | 65% | 1003.4 hPa | - | - | - | - |
| 1778061898 | 19.44° C | 80% | 1004.1 hPa | - | - | - | - |
| 1778055598 | 18.89° C | 78% | 1004 hPa | - | - | - | - |
| 1778052895 | 18.33° C | 77% | 1004.1 hPa | - | - | - | - |
| 1778051998 | 18.33° C | 77% | 1004.1 hPa | - | - | - | - |
| 1778049296 | 17.78° C | 76% | 1004.3 hPa | - | - | - | - |
| 1778047496 | 17.78° C | 72% | 1004.3 hPa | - | - | - | - |
| 1778043891 | 16.11° C | 77% | 1004.1 hPa | - | - | - | - |
| 1778042093 | 16.11° C | 80% | 1003.9 hPa | - | - | - | - |
| 1778040297 | 15.56° C | 78% | 1003.8 hPa | - | - | - | - |
| 1778021397 | 17.22° C | 74% | 1005.5 hPa | - | - | - | - |
| 1778016895 | 17.78° C | 75% | 1005.7 hPa | - | - | - | - |
| 1778011494 | 19.44° C | 69% | 1006.2 hPa | - | - | - | - |
* Rain since midnight (hover to see other rain measurements)
** Current wind speed in m/s (hover to see current wind gust speed)